sensor_id;sensor_type;location;lat;lon;timestamp;pressure;altitude;pressure_sealevel;temperature;humidity
35419;BME280;21525;41.240;16.500;2022-12-07T00:03:47;101083.59;;;20.70;70.42
35419;BME280;21525;41.240;16.500;2022-12-07T00:06:15;101076.59;;;21.04;68.76
35419;BME280;21525;41.240;16.500;2022-12-07T00:08:41;101081.56;;;20.75;70.57
35419;BME280;21525;41.240;16.500;2022-12-07T00:11:09;101076.13;;;20.78;69.95
35419;BME280;21525;41.240;16.500;2022-12-07T00:13:37;101080.78;;;20.91;70.26
35419;BME280;21525;41.240;16.500;2022-12-07T00:16:06;101077.53;;;20.86;70.42
35419;BME280;21525;41.240;16.500;2022-12-07T00:18:32;101075.06;;;20.28;73.91
35419;BME280;21525;41.240;16.500;2022-12-07T00:21:10;101070.00;;;20.78;71.54
35419;BME280;21525;41.240;16.500;2022-12-07T00:23:36;101073.88;;;20.71;72.88
35419;BME280;21525;41.240;16.500;2022-12-07T00:26:24;101073.50;;;20.96;70.46
35419;BME280;21525;41.240;16.500;2022-12-07T00:28:52;101066.34;;;21.32;68.23
35419;BME280;21525;41.240;16.500;2022-12-07T00:31:22;101067.59;;;21.25;68.14
35419;BME280;21525;41.240;16.500;2022-12-07T00:33:49;101067.72;;;20.88;69.65
35419;BME280;21525;41.240;16.500;2022-12-07T00:36:17;101076.81;;;20.82;71.28
35419;BME280;21525;41.240;16.500;2022-12-07T00:38:43;101073.00;;;20.88;70.29
35419;BME280;21525;41.240;16.500;2022-12-07T00:41:13;101071.00;;;20.93;70.32
35419;BME280;21525;41.240;16.500;2022-12-07T00:43:40;101067.44;;;20.76;70.21
35419;BME280;21525;41.240;16.500;2022-12-07T00:46:06;101079.31;;;20.49;71.00
35419;BME280;21525;41.240;16.500;2022-12-07T00:48:33;101080.03;;;20.34;72.38
35419;BME280;21525;41.240;16.500;2022-12-07T00:50:59;101075.56;;;19.98;74.47
35419;BME280;21525;41.240;16.500;2022-12-07T00:53:26;101071.00;;;20.39;72.88
35419;BME280;21525;41.240;16.500;2022-12-07T00:55:52;101060.31;;;20.60;71.15
35419;BME280;21525;41.240;16.500;2022-12-07T00:58:18;101066.50;;;20.41;71.85
35419;BME280;21525;41.240;16.500;2022-12-07T01:00:45;101059.75;;;20.53;71.41
35419;BME280;21525;41.240;16.500;2022-12-07T01:03:13;101074.28;;;20.44;71.80
35419;BME280;21525;41.240;16.500;2022-12-07T01:05:39;101070.47;;;20.50;72.18
35419;BME280;21525;41.240;16.500;2022-12-07T01:08:05;101066.97;;;20.31;72.83
35419;BME280;21525;41.240;16.500;2022-12-07T01:10:32;101061.94;;;20.45;72.10
35419;BME280;21525;41.240;16.500;2022-12-07T01:12:58;101070.47;;;20.50;71.82
35419;BME280;21525;41.240;16.500;2022-12-07T01:15:25;101058.34;;;20.27;73.37
35419;BME280;21525;41.240;16.500;2022-12-07T01:17:51;101057.25;;;20.14;74.37
35419;BME280;21525;41.240;16.500;2022-12-07T01:20:17;101051.31;;;20.09;74.89
35419;BME280;21525;41.240;16.500;2022-12-07T01:22:43;101050.25;;;20.13;73.74
35419;BME280;21525;41.240;16.500;2022-12-07T01:25:11;101050.59;;;20.05;74.50
35419;BME280;21525;41.240;16.500;2022-12-07T01:27:37;101055.56;;;20.30;74.07
35419;BME280;21525;41.240;16.500;2022-12-07T01:30:05;101042.19;;;20.52;72.22
35419;BME280;21525;41.240;16.500;2022-12-07T01:32:32;101040.63;;;20.48;72.46
35419;BME280;21525;41.240;16.500;2022-12-07T01:34:57;101037.03;;;20.49;72.60
35419;BME280;21525;41.240;16.500;2022-12-07T01:37:23;101035.34;;;20.29;72.70
35419;BME280;21525;41.240;16.500;2022-12-07T01:39:50;101035.06;;;20.35;71.77
35419;BME280;21525;41.240;16.500;2022-12-07T01:42:16;101034.41;;;20.13;73.61
35419;BME280;21525;41.240;16.500;2022-12-07T01:47:52;101023.47;;;20.39;72.40
35419;BME280;21525;41.240;16.500;2022-12-07T01:50:19;101025.91;;;20.06;73.44
35419;BME280;21525;41.240;16.500;2022-12-07T01:52:49;101025.09;;;20.42;71.58
35419;BME280;21525;41.240;16.500;2022-12-07T01:55:16;101024.72;;;20.31;70.76
35419;BME280;21525;41.240;16.500;2022-12-07T01:57:48;101018.72;;;20.27;71.79
35419;BME280;21525;41.240;16.500;2022-12-07T02:00:15;101018.94;;;20.23;71.51
35419;BME280;21525;41.240;16.500;2022-12-07T02:02:54;101018.78;;;20.26;71.98
35419;BME280;21525;41.240;16.500;2022-12-07T02:05:23;101019.94;;;20.20;72.74
35419;BME280;21525;41.240;16.500;2022-12-07T02:07:51;101018.22;;;20.19;71.34
35419;BME280;21525;41.240;16.500;2022-12-07T02:10:22;101021.88;;;20.17;71.89
35419;BME280;21525;41.240;16.500;2022-12-07T02:12:52;101015.34;;;20.06;73.01
35419;BME280;21525;41.240;16.500;2022-12-07T02:15:21;101014.19;;;20.12;72.20
35419;BME280;21525;41.240;16.500;2022-12-07T02:18:07;101011.09;;;20.21;71.40
35419;BME280;21525;41.240;16.500;2022-12-07T02:24:31;101000.31;;;20.26;71.35
35419;BME280;21525;41.240;16.500;2022-12-07T02:29:11;100988.97;;;20.24;70.89
35419;BME280;21525;41.240;16.500;2022-12-07T02:31:44;100989.25;;;20.18;70.93
35419;BME280;21525;41.240;16.500;2022-12-07T02:34:21;100984.13;;;20.14;71.21
35419;BME280;21525;41.240;16.500;2022-12-07T02:36:54;100989.50;;;20.13;71.55
35419;BME280;21525;41.240;16.500;2022-12-07T02:42:58;100992.44;;;20.07;70.83
35419;BME280;21525;41.240;16.500;2022-12-07T02:45:28;100987.72;;;20.13;70.55
35419;BME280;21525;41.240;16.500;2022-12-07T02:47:58;100988.31;;;20.19;70.30
35419;BME280;21525;41.240;16.500;2022-12-07T02:50:25;100991.75;;;20.21;70.37
35419;BME280;21525;41.240;16.500;2022-12-07T02:52:51;100985.53;;;20.22;69.93
35419;BME280;21525;41.240;16.500;2022-12-07T02:55:20;100981.25;;;20.38;69.71
35419;BME280;21525;41.240;16.500;2022-12-07T02:58:20;100973.03;;;20.44;68.89
35419;BME280;21525;41.240;16.500;2022-12-07T03:00:59;100979.88;;;19.56;72.22
35419;BME280;21525;41.240;16.500;2022-12-07T03:03:30;100979.69;;;19.79;72.38
35419;BME280;21525;41.240;16.500;2022-12-07T03:06:28;100971.72;;;19.41;73.72
35419;BME280;21525;41.240;16.500;2022-12-07T03:09:09;100964.31;;;19.31;75.81
35419;BME280;21525;41.240;16.500;2022-12-07T03:11:47;100961.94;;;19.64;73.58
35419;BME280;21525;41.240;16.500;2022-12-07T03:14:19;100963.16;;;19.36;74.57
35419;BME280;21525;41.240;16.500;2022-12-07T03:16:54;100961.94;;;18.43;80.82
35419;BME280;21525;41.240;16.500;2022-12-07T03:19:23;100957.06;;;18.55;82.47
35419;BME280;21525;41.240;16.500;2022-12-07T03:21:59;100966.31;;;18.85;79.92
35419;BME280;21525;41.240;16.500;2022-12-07T03:24:37;100959.19;;;19.46;75.97
35419;BME280;21525;41.240;16.500;2022-12-07T03:27:16;100957.38;;;19.28;75.42
35419;BME280;21525;41.240;16.500;2022-12-07T03:29:47;100958.03;;;19.33;74.61
35419;BME280;21525;41.240;16.500;2022-12-07T03:37:30;100960.72;;;19.13;76.16
35419;BME280;21525;41.240;16.500;2022-12-07T03:40:16;100965.03;;;19.34;74.44
35419;BME280;21525;41.240;16.500;2022-12-07T03:42:44;100958.91;;;19.53;73.33
35419;BME280;21525;41.240;16.500;2022-12-07T03:45:11;100958.78;;;19.74;71.95
35419;BME280;21525;41.240;16.500;2022-12-07T03:50:17;100958.41;;;19.44;72.97
35419;BME280;21525;41.240;16.500;2022-12-07T03:52:55;100960.91;;;19.48;73.12
35419;BME280;21525;41.240;16.500;2022-12-07T03:55:30;100956.22;;;19.54;72.45
35419;BME280;21525;41.240;16.500;2022-12-07T03:58:01;100951.50;;;19.79;71.29
35419;BME280;21525;41.240;16.500;2022-12-07T04:00:28;100948.44;;;19.70;71.21
35419;BME280;21525;41.240;16.500;2022-12-07T04:02:55;100946.56;;;19.34;72.70
35419;BME280;21525;41.240;16.500;2022-12-07T04:05:21;100954.16;;;19.22;74.03
35419;BME280;21525;41.240;16.500;2022-12-07T04:07:47;100957.78;;;19.19;74.22
35419;BME280;21525;41.240;16.500;2022-12-07T04:10:13;100959.44;;;19.22;73.81
35419;BME280;21525;41.240;16.500;2022-12-07T04:12:39;100954.34;;;19.37;73.06
35419;BME280;21525;41.240;16.500;2022-12-07T04:15:05;100957.28;;;19.11;73.75
35419;BME280;21525;41.240;16.500;2022-12-07T04:17:32;100955.06;;;19.21;73.21
35419;BME280;21525;41.240;16.500;2022-12-07T04:19:57;100960.34;;;19.21;72.98
35419;BME280;21525;41.240;16.500;2022-12-07T04:22:23;100958.53;;;19.41;72.23
35419;BME280;21525;41.240;16.500;2022-12-07T04:24:50;100965.75;;;19.38;72.68
35419;BME280;21525;41.240;16.500;2022-12-07T04:27:15;100960.75;;;19.51;71.76
35419;BME280;21525;41.240;16.500;2022-12-07T04:29:41;100953.53;;;19.35;72.34
35419;BME280;21525;41.240;16.500;2022-12-07T04:32:07;100953.63;;;19.53;71.25
35419;BME280;21525;41.240;16.500;2022-12-07T04:34:33;100954.53;;;19.14;72.40
35419;BME280;21525;41.240;16.500;2022-12-07T04:36:58;100952.75;;;19.15;73.14
35419;BME280;21525;41.240;16.500;2022-12-07T04:39:27;100952.34;;;19.42;71.95
35419;BME280;21525;41.240;16.500;2022-12-07T04:41:53;100945.03;;;19.68;70.82
35419;BME280;21525;41.240;16.500;2022-12-07T04:44:20;100933.69;;;19.66;70.88
35419;BME280;21525;41.240;16.500;2022-12-07T04:46:46;100934.25;;;19.72;70.52
35419;BME280;21525;41.240;16.500;2022-12-07T04:49:14;100930.81;;;19.70;70.59
35419;BME280;21525;41.240;16.500;2022-12-07T04:51:40;100933.09;;;19.78;70.16
35419;BME280;21525;41.240;16.500;2022-12-07T04:54:06;100935.91;;;19.75;69.59
35419;BME280;21525;41.240;16.500;2022-12-07T04:56:33;100940.66;;;19.67;70.30
35419;BME280;21525;41.240;16.500;2022-12-07T04:59:01;100933.53;;;19.69;69.97
35419;BME280;21525;41.240;16.500;2022-12-07T05:01:27;100941.09;;;19.76;69.86
35419;BME280;21525;41.240;16.500;2022-12-07T05:03:52;100945.41;;;19.96;69.09
35419;BME280;21525;41.240;16.500;2022-12-07T05:06:18;100936.22;;;19.86;69.61
35419;BME280;21525;41.240;16.500;2022-12-07T05:08:45;100935.06;;;19.92;69.10
35419;BME280;21525;41.240;16.500;2022-12-07T05:11:11;100948.06;;;19.40;70.90
35419;BME280;21525;41.240;16.500;2022-12-07T05:13:57;100946.16;;;19.62;71.07
35419;BME280;21525;41.240;16.500;2022-12-07T05:16:23;100943.66;;;19.59;70.96
35419;BME280;21525;41.240;16.500;2022-12-07T05:18:49;100942.94;;;19.56;70.75
35419;BME280;21525;41.240;16.500;2022-12-07T05:21:15;100950.16;;;19.52;71.04
35419;BME280;21525;41.240;16.500;2022-12-07T05:23:41;100953.22;;;19.81;70.07
35419;BME280;21525;41.240;16.500;2022-12-07T05:26:07;100953.38;;;19.59;71.04
35419;BME280;21525;41.240;16.500;2022-12-07T05:28:32;100949.69;;;19.42;71.47
35419;BME280;21525;41.240;16.500;2022-12-07T05:30:58;100948.00;;;19.41;71.48
35419;BME280;21525;41.240;16.500;2022-12-07T05:33:24;100938.50;;;19.37;72.74
35419;BME280;21525;41.240;16.500;2022-12-07T05:35:50;100934.25;;;19.54;71.16
35419;BME280;21525;41.240;16.500;2022-12-07T05:38:15;100928.41;;;19.66;70.74
35419;BME280;21525;41.240;16.500;2022-12-07T05:40:41;100939.47;;;19.74;70.88
35419;BME280;21525;41.240;16.500;2022-12-07T05:43:07;100931.31;;;19.78;70.38
35419;BME280;21525;41.240;16.500;2022-12-07T05:45:33;100934.41;;;20.05;69.51
35419;BME280;21525;41.240;16.500;2022-12-07T05:47:59;100935.69;;;19.79;69.80
35419;BME280;21525;41.240;16.500;2022-12-07T05:50:24;100933.09;;;19.78;69.52
35419;BME280;21525;41.240;16.500;2022-12-07T05:52:59;100932.78;;;19.84;69.47
35419;BME280;21525;41.240;16.500;2022-12-07T05:55:25;100939.88;;;19.46;71.64
35419;BME280;21525;41.240;16.500;2022-12-07T05:57:51;100939.38;;;19.18;72.61
35419;BME280;21525;41.240;16.500;2022-12-07T06:00:35;100942.22;;;19.52;71.19
35419;BME280;21525;41.240;16.500;2022-12-07T06:03:01;100937.31;;;19.63;71.13
35419;BME280;21525;41.240;16.500;2022-12-07T06:05:27;100939.81;;;19.66;70.41
35419;BME280;21525;41.240;16.500;2022-12-07T06:07:53;100936.91;;;19.72;70.09
35419;BME280;21525;41.240;16.500;2022-12-07T06:10:18;100941.38;;;19.70;70.65
35419;BME280;21525;41.240;16.500;2022-12-07T06:12:44;100936.09;;;19.70;70.73
35419;BME280;21525;41.240;16.500;2022-12-07T06:15:11;100935.34;;;19.86;69.95
35419;BME280;21525;41.240;16.500;2022-12-07T06:17:38;100938.88;;;19.49;70.51
35419;BME280;21525;41.240;16.500;2022-12-07T06:20:05;100931.00;;;19.28;71.87
35419;BME280;21525;41.240;16.500;2022-12-07T06:22:31;100932.19;;;19.60;71.53
35419;BME280;21525;41.240;16.500;2022-12-07T06:24:57;100928.53;;;19.82;69.83
35419;BME280;21525;41.240;16.500;2022-12-07T06:27:23;100932.41;;;19.74;69.71
35419;BME280;21525;41.240;16.500;2022-12-07T06:29:49;100930.50;;;19.95;68.77
35419;BME280;21525;41.240;16.500;2022-12-07T06:32:14;100932.00;;;20.01;68.05
35419;BME280;21525;41.240;16.500;2022-12-07T06:34:40;100931.06;;;20.02;67.76
35419;BME280;21525;41.240;16.500;2022-12-07T06:37:06;100930.13;;;19.67;69.42
35419;BME280;21525;41.240;16.500;2022-12-07T06:39:32;100926.44;;;19.88;68.39
35419;BME280;21525;41.240;16.500;2022-12-07T06:41:58;100923.38;;;20.14;67.66
35419;BME280;21525;41.240;16.500;2022-12-07T06:44:23;100929.53;;;20.32;66.73
35419;BME280;21525;41.240;16.500;2022-12-07T06:46:50;100915.63;;;21.13;64.05
35419;BME280;21525;41.240;16.500;2022-12-07T06:49:17;100932.31;;;22.26;59.83
35419;BME280;21525;41.240;16.500;2022-12-07T06:51:43;100936.59;;;22.28;58.29
35419;BME280;21525;41.240;16.500;2022-12-07T06:54:10;100938.34;;;22.73;56.16
35419;BME280;21525;41.240;16.500;2022-12-07T06:56:37;100938.34;;;22.73;55.28
35419;BME280;21525;41.240;16.500;2022-12-07T06:59:04;100938.66;;;22.23;56.69
35419;BME280;21525;41.240;16.500;2022-12-07T07:01:32;100948.72;;;23.21;53.98
35419;BME280;21525;41.240;16.500;2022-12-07T07:03:58;100941.22;;;23.27;52.64
35419;BME280;21525;41.240;16.500;2022-12-07T07:06:24;100941.47;;;24.33;50.26
35419;BME280;21525;41.240;16.500;2022-12-07T07:08:50;100936.94;;;24.21;49.26
35419;BME280;21525;41.240;16.500;2022-12-07T07:11:16;100943.91;;;24.09;49.75
35419;BME280;21525;41.240;16.500;2022-12-07T07:13:41;100945.34;;;24.55;48.56
35419;BME280;21525;41.240;16.500;2022-12-07T07:16:07;100948.75;;;24.69;47.42
35419;BME280;21525;41.240;16.500;2022-12-07T07:18:33;100939.78;;;25.59;45.88
35419;BME280;21525;41.240;16.500;2022-12-07T07:21:00;100942.63;;;26.29;44.59
35419;BME280;21525;41.240;16.500;2022-12-07T07:23:26;100953.19;;;26.31;43.97
35419;BME280;21525;41.240;16.500;2022-12-07T07:25:52;100949.47;;;26.44;43.33
35419;BME280;21525;41.240;16.500;2022-12-07T07:28:18;100952.31;;;26.65;43.14
35419;BME280;21525;41.240;16.500;2022-12-07T07:30:45;100953.03;;;27.14;42.02
35419;BME280;21525;41.240;16.500;2022-12-07T07:33:11;100953.41;;;27.20;41.82
35419;BME280;21525;41.240;16.500;2022-12-07T07:35:37;100953.13;;;25.96;43.65
35419;BME280;21525;41.240;16.500;2022-12-07T07:38:04;100946.53;;;26.13;44.32
35419;BME280;21525;41.240;16.500;2022-12-07T07:40:31;100949.38;;;27.03;42.06
35419;BME280;21525;41.240;16.500;2022-12-07T07:42:57;100938.09;;;27.56;41.95
35419;BME280;21525;41.240;16.500;2022-12-07T07:45:26;100935.44;;;28.42;40.25
35419;BME280;21525;41.240;16.500;2022-12-07T07:47:52;100939.38;;;28.27;40.02
35419;BME280;21525;41.240;16.500;2022-12-07T07:50:18;100932.88;;;29.03;39.61
35419;BME280;21525;41.240;16.500;2022-12-07T07:52:44;100936.06;;;29.27;38.60
35419;BME280;21525;41.240;16.500;2022-12-07T07:55:11;100936.28;;;29.05;38.70
35419;BME280;21525;41.240;16.500;2022-12-07T07:57:38;100939.06;;;29.03;38.51
35419;BME280;21525;41.240;16.500;2022-12-07T08:00:09;100942.97;;;29.60;37.86
35419;BME280;21525;41.240;16.500;2022-12-07T08:02:39;100938.03;;;28.95;38.51
35419;BME280;21525;41.240;16.500;2022-12-07T08:05:05;100937.78;;;28.98;39.10
35419;BME280;21525;41.240;16.500;2022-12-07T08:07:31;100952.66;;;28.49;40.51
35419;BME280;21525;41.240;16.500;2022-12-07T08:09:57;100947.56;;;28.46;40.59
35419;BME280;21525;41.240;16.500;2022-12-07T08:12:23;100951.88;;;28.37;40.78
35419;BME280;21525;41.240;16.500;2022-12-07T08:14:49;100953.03;;;28.13;41.22
35419;BME280;21525;41.240;16.500;2022-12-07T08:17:14;100953.47;;;28.29;41.08
35419;BME280;21525;41.240;16.500;2022-12-07T08:19:40;100955.34;;;27.74;42.21
35419;BME280;21525;41.240;16.500;2022-12-07T08:22:06;100957.91;;;27.42;43.82
35419;BME280;21525;41.240;16.500;2022-12-07T08:24:35;100962.38;;;27.30;44.57
35419;BME280;21525;41.240;16.500;2022-12-07T08:27:02;100964.09;;;27.42;44.29
35419;BME280;21525;41.240;16.500;2022-12-07T08:29:28;100958.00;;;27.40;45.31
35419;BME280;21525;41.240;16.500;2022-12-07T08:31:54;100952.19;;;27.35;45.95
35419;BME280;21525;41.240;16.500;2022-12-07T08:34:20;100956.41;;;26.93;46.33
35419;BME280;21525;41.240;16.500;2022-12-07T08:36:46;100946.13;;;27.44;46.29
35419;BME280;21525;41.240;16.500;2022-12-07T08:39:12;100950.47;;;27.57;45.84
35419;BME280;21525;41.240;16.500;2022-12-07T08:41:38;100948.78;;;27.56;46.57
35419;BME280;21525;41.240;16.500;2022-12-07T08:44:04;100951.81;;;27.62;46.36
35419;BME280;21525;41.240;16.500;2022-12-07T08:46:31;100954.84;;;27.13;47.03
35419;BME280;21525;41.240;16.500;2022-12-07T08:49:12;100954.88;;;26.67;48.15
35419;BME280;21525;41.240;16.500;2022-12-07T08:51:39;100958.00;;;26.26;49.59
35419;BME280;21525;41.240;16.500;2022-12-07T08:54:09;100963.94;;;26.64;49.46
35419;BME280;21525;41.240;16.500;2022-12-07T08:56:36;100960.31;;;27.12;48.64
35419;BME280;21525;41.240;16.500;2022-12-07T08:59:04;100969.97;;;26.90;49.04
35419;BME280;21525;41.240;16.500;2022-12-07T09:01:30;100961.13;;;26.90;48.85
35419;BME280;21525;41.240;16.500;2022-12-07T09:03:56;100963.00;;;26.65;49.39
35419;BME280;21525;41.240;16.500;2022-12-07T09:06:22;100964.75;;;26.89;49.02
35419;BME280;21525;41.240;16.500;2022-12-07T09:08:51;100962.13;;;27.00;49.23
35419;BME280;21525;41.240;16.500;2022-12-07T09:11:18;100965.25;;;26.94;48.74
35419;BME280;21525;41.240;16.500;2022-12-07T09:13:44;100962.53;;;26.71;49.05
35419;BME280;21525;41.240;16.500;2022-12-07T09:16:10;100959.59;;;27.09;48.66
35419;BME280;21525;41.240;16.500;2022-12-07T09:18:36;100964.78;;;26.54;49.61
35419;BME280;21525;41.240;16.500;2022-12-07T09:21:03;100963.75;;;26.78;49.35
35419;BME280;21525;41.240;16.500;2022-12-07T09:23:30;100969.63;;;26.49;50.37
35419;BME280;21525;41.240;16.500;2022-12-07T09:25:59;100964.69;;;26.07;50.52
35419;BME280;21525;41.240;16.500;2022-12-07T09:28:26;100963.38;;;26.37;50.18
35419;BME280;21525;41.240;16.500;2022-12-07T09:30:52;100965.84;;;26.86;48.70
35419;BME280;21525;41.240;16.500;2022-12-07T09:33:18;100967.84;;;26.60;49.28
35419;BME280;21525;41.240;16.500;2022-12-07T09:35:45;100962.00;;;26.55;49.72
35419;BME280;21525;41.240;16.500;2022-12-07T09:38:11;100958.63;;;26.64;50.25
35419;BME280;21525;41.240;16.500;2022-12-07T09:40:37;100958.25;;;27.04;48.96
35419;BME280;21525;41.240;16.500;2022-12-07T09:43:03;100950.50;;;26.55;50.11
35419;BME280;21525;41.240;16.500;2022-12-07T09:45:36;100949.88;;;27.08;49.29
35419;BME280;21525;41.240;16.500;2022-12-07T09:48:03;100955.94;;;26.64;50.47
35419;BME280;21525;41.240;16.500;2022-12-07T09:50:30;100950.88;;;26.72;50.04
35419;BME280;21525;41.240;16.500;2022-12-07T09:53:06;100953.41;;;27.09;49.67
35419;BME280;21525;41.240;16.500;2022-12-07T09:55:33;100939.66;;;26.21;51.56
35419;BME280;21525;41.240;16.500;2022-12-07T09:58:02;100949.66;;;26.65;51.24
35419;BME280;21525;41.240;16.500;2022-12-07T10:00:29;100947.94;;;26.53;51.89
35419;BME280;21525;41.240;16.500;2022-12-07T10:05:27;100947.25;;;26.73;50.89
35419;BME280;21525;41.240;16.500;2022-12-07T10:07:55;100943.53;;;26.41;51.76
35419;BME280;21525;41.240;16.500;2022-12-07T10:10:30;100941.66;;;26.65;51.38
35419;BME280;21525;41.240;16.500;2022-12-07T10:13:00;100928.81;;;26.35;51.78
35419;BME280;21525;41.240;16.500;2022-12-07T10:18:24;100941.75;;;27.21;50.92
35419;BME280;21525;41.240;16.500;2022-12-07T10:21:00;100931.31;;;26.96;50.88
35419;BME280;21525;41.240;16.500;2022-12-07T10:23:27;100927.06;;;27.16;50.64
35419;BME280;21525;41.240;16.500;2022-12-07T10:25:53;100926.94;;;27.06;50.62
35419;BME280;21525;41.240;16.500;2022-12-07T10:28:21;100919.28;;;27.01;50.54
35419;BME280;21525;41.240;16.500;2022-12-07T10:35:57;100918.31;;;26.91;51.00
35419;BME280;21525;41.240;16.500;2022-12-07T10:38:25;100917.25;;;26.24;52.57
35419;BME280;21525;41.240;16.500;2022-12-07T10:41:06;100910.00;;;26.02;53.05
35419;BME280;21525;41.240;16.500;2022-12-07T10:43:33;100921.28;;;26.05;52.77
35419;BME280;21525;41.240;16.500;2022-12-07T10:49:17;100906.09;;;25.71;54.87
35419;BME280;21525;41.240;16.500;2022-12-07T10:55:04;100914.03;;;25.84;55.20
35419;BME280;21525;41.240;16.500;2022-12-07T11:21:12;100899.31;;;25.91;54.22
35419;BME280;21525;41.240;16.500;2022-12-07T11:23:49;100904.66;;;25.41;55.90
35419;BME280;21525;41.240;16.500;2022-12-07T11:27:06;100899.97;;;25.45;56.92
35419;BME280;21525;41.240;16.500;2022-12-07T11:35:11;100893.50;;;25.36;56.61
35419;BME280;21525;41.240;16.500;2022-12-07T11:37:39;100897.84;;;25.37;57.35
35419;BME280;21525;41.240;16.500;2022-12-07T11:40:31;100894.63;;;24.18;60.46
35419;BME280;21525;41.240;16.500;2022-12-07T11:43:43;100896.22;;;24.21;61.27
35419;BME280;21525;41.240;16.500;2022-12-07T11:46:15;100896.81;;;24.11;63.58
35419;BME280;21525;41.240;16.500;2022-12-07T11:48:50;100888.97;;;24.50;62.35
35419;BME280;21525;41.240;16.500;2022-12-07T11:51:20;100883.03;;;24.97;60.93
35419;BME280;21525;41.240;16.500;2022-12-07T11:53:50;100886.97;;;25.53;58.54
35419;BME280;21525;41.240;16.500;2022-12-07T11:56:20;100880.31;;;25.71;58.19
35419;BME280;21525;41.240;16.500;2022-12-07T11:59:00;100873.84;;;25.14;58.87
35419;BME280;21525;41.240;16.500;2022-12-07T12:01:39;100874.50;;;25.54;58.44
35419;BME280;21525;41.240;16.500;2022-12-07T12:06:37;100877.16;;;24.54;63.52
35419;BME280;21525;41.240;16.500;2022-12-07T12:09:14;100880.97;;;24.75;62.57
35419;BME280;21525;41.240;16.500;2022-12-07T12:20:26;100871.31;;;24.36;63.37
35419;BME280;21525;41.240;16.500;2022-12-07T12:22:59;100869.19;;;24.66;63.75
35419;BME280;21525;41.240;16.500;2022-12-07T12:25:35;100873.41;;;24.43;64.14
35419;BME280;21525;41.240;16.500;2022-12-07T12:28:03;100865.34;;;24.45;64.60
35419;BME280;21525;41.240;16.500;2022-12-07T12:30:34;100865.53;;;24.42;65.10
35419;BME280;21525;41.240;16.500;2022-12-07T12:33:11;100868.78;;;24.98;63.20
35419;BME280;21525;41.240;16.500;2022-12-07T12:35:39;100863.34;;;25.36;61.32
35419;BME280;21525;41.240;16.500;2022-12-07T12:38:29;100859.91;;;25.47;60.64
35419;BME280;21525;41.240;16.500;2022-12-07T12:40:56;100863.97;;;25.03;62.16
35419;BME280;21525;41.240;16.500;2022-12-07T12:43:51;100853.94;;;25.06;61.42
35419;BME280;21525;41.240;16.500;2022-12-07T12:57:18;100850.56;;;24.92;62.84
35419;BME280;21525;41.240;16.500;2022-12-07T13:02:32;100840.88;;;24.53;63.71
35419;BME280;21525;41.240;16.500;2022-12-07T13:13:43;100842.16;;;24.47;64.20
35419;BME280;21525;41.240;16.500;2022-12-07T13:26:39;100847.69;;;24.44;65.19
35419;BME280;21525;41.240;16.500;2022-12-07T13:31:36;100848.19;;;24.24;64.71
35419;BME280;21525;41.240;16.500;2022-12-07T13:34:05;100844.09;;;24.05;65.05
35419;BME280;21525;41.240;16.500;2022-12-07T13:36:51;100844.97;;;24.19;64.96
35419;BME280;21525;41.240;16.500;2022-12-07T13:41:48;100844.31;;;24.02;65.61
35419;BME280;21525;41.240;16.500;2022-12-07T13:44:16;100840.72;;;24.16;65.40
35419;BME280;21525;41.240;16.500;2022-12-07T13:47:07;100829.94;;;23.92;65.70
35419;BME280;21525;41.240;16.500;2022-12-07T13:49:49;100838.34;;;24.51;63.79
35419;BME280;21525;41.240;16.500;2022-12-07T13:52:25;100840.72;;;24.03;65.10
35419;BME280;21525;41.240;16.500;2022-12-07T13:57:29;100845.38;;;24.00;66.04
35419;BME280;21525;41.240;16.500;2022-12-07T14:00:03;100839.97;;;24.01;65.43
35419;BME280;21525;41.240;16.500;2022-12-07T14:02:33;100845.94;;;23.78;66.22
35419;BME280;21525;41.240;16.500;2022-12-07T14:07:57;100852.72;;;23.69;66.63
35419;BME280;21525;41.240;16.500;2022-12-07T14:15:50;100850.69;;;24.12;65.04
35419;BME280;21525;41.240;16.500;2022-12-07T14:18:38;100852.38;;;24.28;64.54
35419;BME280;21525;41.240;16.500;2022-12-07T14:21:16;100847.44;;;24.22;64.35
35419;BME280;21525;41.240;16.500;2022-12-07T14:26:34;100848.53;;;23.92;66.27
35419;BME280;21525;41.240;16.500;2022-12-07T14:31:46;100854.50;;;24.08;66.12
35419;BME280;21525;41.240;16.500;2022-12-07T14:34:12;100852.75;;;23.82;66.69
35419;BME280;21525;41.240;16.500;2022-12-07T14:36:38;100860.97;;;24.04;65.76
35419;BME280;21525;41.240;16.500;2022-12-07T14:39:04;100854.66;;;23.80;66.65
35419;BME280;21525;41.240;16.500;2022-12-07T14:41:30;100857.16;;;24.08;65.70
35419;BME280;21525;41.240;16.500;2022-12-07T14:44:14;100856.16;;;23.84;66.07
35419;BME280;21525;41.240;16.500;2022-12-07T14:46:40;100857.41;;;23.78;66.62
35419;BME280;21525;41.240;16.500;2022-12-07T14:49:06;100862.91;;;23.75;66.87
35419;BME280;21525;41.240;16.500;2022-12-07T14:51:32;100873.97;;;23.69;67.13
35419;BME280;21525;41.240;16.500;2022-12-07T14:53:58;100871.41;;;23.68;67.43
35419;BME280;21525;41.240;16.500;2022-12-07T14:56:25;100874.66;;;23.59;67.25
35419;BME280;21525;41.240;16.500;2022-12-07T14:58:51;100866.41;;;23.63;67.17
35419;BME280;21525;41.240;16.500;2022-12-07T15:01:17;100863.09;;;23.60;67.47
35419;BME280;21525;41.240;16.500;2022-12-07T15:03:42;100874.50;;;23.33;68.69
35419;BME280;21525;41.240;16.500;2022-12-07T15:06:13;100870.00;;;23.62;67.53